sensor_id;sensor_type;location;lat;lon;timestamp;P1;durP1;ratioP1;P2;durP2;ratioP2
68583;SDS011;55557;49.220;11.150;2022-08-03T00:00:39;6.20;;;3.33;;
68583;SDS011;55557;49.220;11.150;2022-08-03T00:03:06;3.50;;;3.00;;
68583;SDS011;55557;49.220;11.150;2022-08-03T00:05:32;7.00;;;3.47;;
68583;SDS011;55557;49.220;11.150;2022-08-03T00:08:02;5.83;;;3.23;;
68583;SDS011;55557;49.220;11.150;2022-08-03T00:10:28;5.57;;;2.67;;
68583;SDS011;55557;49.220;11.150;2022-08-03T00:12:54;4.00;;;3.23;;
68583;SDS011;55557;49.220;11.150;2022-08-03T00:15:20;5.80;;;2.70;;
68583;SDS011;55557;49.220;11.150;2022-08-03T00:17:46;4.50;;;2.83;;
68583;SDS011;55557;49.220;11.150;2022-08-03T00:20:12;8.20;;;3.70;;
68583;SDS011;55557;49.220;11.150;2022-08-03T00:22:38;3.73;;;2.97;;
68583;SDS011;55557;49.220;11.150;2022-08-03T00:25:04;6.97;;;3.53;;
68583;SDS011;55557;49.220;11.150;2022-08-03T00:27:31;3.10;;;2.80;;
68583;SDS011;55557;49.220;11.150;2022-08-03T00:29:57;4.40;;;3.43;;
68583;SDS011;55557;49.220;11.150;2022-08-03T00:32:23;3.83;;;3.13;;
68583;SDS011;55557;49.220;11.150;2022-08-03T00:34:49;5.27;;;3.10;;
68583;SDS011;55557;49.220;11.150;2022-08-03T00:37:15;7.33;;;3.03;;
68583;SDS011;55557;49.220;11.150;2022-08-03T00:39:41;7.97;;;3.30;;
68583;SDS011;55557;49.220;11.150;2022-08-03T00:42:09;4.40;;;2.90;;
68583;SDS011;55557;49.220;11.150;2022-08-03T00:44:39;3.07;;;2.77;;
68583;SDS011;55557;49.220;11.150;2022-08-03T00:47:05;4.97;;;3.17;;
68583;SDS011;55557;49.220;11.150;2022-08-03T00:49:31;3.07;;;2.77;;
68583;SDS011;55557;49.220;11.150;2022-08-03T00:51:58;4.43;;;3.27;;
68583;SDS011;55557;49.220;11.150;2022-08-03T00:54:24;6.57;;;3.10;;
68583;SDS011;55557;49.220;11.150;2022-08-03T00:56:50;3.57;;;3.10;;
68583;SDS011;55557;49.220;11.150;2022-08-03T00:59:17;8.70;;;3.73;;
68583;SDS011;55557;49.220;11.150;2022-08-03T01:01:43;3.80;;;3.33;;
68583;SDS011;55557;49.220;11.150;2022-08-03T01:04:09;3.40;;;2.80;;
68583;SDS011;55557;49.220;11.150;2022-08-03T01:07:23;4.40;;;2.73;;
68583;SDS011;55557;49.220;11.150;2022-08-03T01:09:22;9.00;;;3.73;;
68583;SDS011;55557;49.220;11.150;2022-08-03T01:11:56;4.23;;;3.20;;
68583;SDS011;55557;49.220;11.150;2022-08-03T01:17:27;4.93;;;2.90;;
68583;SDS011;55557;49.220;11.150;2022-08-03T01:19:59;5.20;;;3.23;;
68583;SDS011;55557;49.220;11.150;2022-08-03T01:28:27;4.83;;;3.00;;
68583;SDS011;55557;49.220;11.150;2022-08-03T01:31:10;3.60;;;3.07;;
68583;SDS011;55557;49.220;11.150;2022-08-03T01:33:38;7.40;;;3.20;;
68583;SDS011;55557;49.220;11.150;2022-08-03T01:39:02;5.40;;;2.90;;
68583;SDS011;55557;49.220;11.150;2022-08-03T01:41:32;3.80;;;3.40;;
68583;SDS011;55557;49.220;11.150;2022-08-03T01:44:00;10.60;;;3.37;;
68583;SDS011;55557;49.220;11.150;2022-08-03T01:46:28;3.90;;;2.80;;
68583;SDS011;55557;49.220;11.150;2022-08-03T01:48:54;3.60;;;3.17;;
68583;SDS011;55557;49.220;11.150;2022-08-03T01:51:21;6.73;;;3.30;;
68583;SDS011;55557;49.220;11.150;2022-08-03T01:53:47;5.47;;;3.30;;
68583;SDS011;55557;49.220;11.150;2022-08-03T01:56:15;4.40;;;3.30;;
68583;SDS011;55557;49.220;11.150;2022-08-03T01:58:42;9.37;;;3.50;;
68583;SDS011;55557;49.220;11.150;2022-08-03T02:01:09;4.97;;;3.57;;
68583;SDS011;55557;49.220;11.150;2022-08-03T02:03:38;8.83;;;4.10;;
68583;SDS011;55557;49.220;11.150;2022-08-03T02:06:10;6.90;;;3.53;;
68583;SDS011;55557;49.220;11.150;2022-08-03T02:08:38;5.63;;;3.43;;
68583;SDS011;55557;49.220;11.150;2022-08-03T02:11:05;8.13;;;3.70;;
68583;SDS011;55557;49.220;11.150;2022-08-03T02:13:32;5.93;;;3.30;;
68583;SDS011;55557;49.220;11.150;2022-08-03T02:15:58;5.67;;;3.30;;
68583;SDS011;55557;49.220;11.150;2022-08-03T02:18:25;5.40;;;3.27;;
68583;SDS011;55557;49.220;11.150;2022-08-03T02:20:51;5.57;;;3.50;;
68583;SDS011;55557;49.220;11.150;2022-08-03T02:23:17;8.30;;;3.40;;
68583;SDS011;55557;49.220;11.150;2022-08-03T02:25:45;4.40;;;3.17;;
68583;SDS011;55557;49.220;11.150;2022-08-03T02:28:19;12.53;;;3.63;;
68583;SDS011;55557;49.220;11.150;2022-08-03T02:30:49;6.13;;;3.80;;
68583;SDS011;55557;49.220;11.150;2022-08-03T02:33:25;6.10;;;3.43;;
68583;SDS011;55557;49.220;11.150;2022-08-03T02:39:03;9.37;;;3.67;;
68583;SDS011;55557;49.220;11.150;2022-08-03T02:41:36;8.33;;;4.10;;
68583;SDS011;55557;49.220;11.150;2022-08-03T02:44:06;5.37;;;3.40;;
68583;SDS011;55557;49.220;11.150;2022-08-03T02:46:37;8.63;;;3.60;;
68583;SDS011;55557;49.220;11.150;2022-08-03T02:49:04;4.30;;;3.30;;
68583;SDS011;55557;49.220;11.150;2022-08-03T02:51:32;8.13;;;3.70;;
68583;SDS011;55557;49.220;11.150;2022-08-03T02:53:59;7.57;;;3.83;;
68583;SDS011;55557;49.220;11.150;2022-08-03T02:56:26;5.30;;;3.53;;
68583;SDS011;55557;49.220;11.150;2022-08-03T02:58:52;11.13;;;3.97;;
68583;SDS011;55557;49.220;11.150;2022-08-03T03:01:19;5.70;;;3.87;;
68583;SDS011;55557;49.220;11.150;2022-08-03T03:03:55;8.00;;;3.50;;
68583;SDS011;55557;49.220;11.150;2022-08-03T03:06:21;8.83;;;3.47;;
68583;SDS011;55557;49.220;11.150;2022-08-03T03:08:48;6.27;;;3.53;;
68583;SDS011;55557;49.220;11.150;2022-08-03T03:11:14;5.20;;;3.50;;
68583;SDS011;55557;49.220;11.150;2022-08-03T03:13:42;5.00;;;3.93;;
68583;SDS011;55557;49.220;11.150;2022-08-03T03:16:08;6.97;;;3.50;;
68583;SDS011;55557;49.220;11.150;2022-08-03T03:18:34;8.03;;;3.80;;
68583;SDS011;55557;49.220;11.150;2022-08-03T03:21:02;9.30;;;3.70;;
68583;SDS011;55557;49.220;11.150;2022-08-03T03:23:29;4.73;;;3.33;;
68583;SDS011;55557;49.220;11.150;2022-08-03T03:25:56;7.13;;;3.53;;
68583;SDS011;55557;49.220;11.150;2022-08-03T03:28:23;6.37;;;3.63;;
68583;SDS011;55557;49.220;11.150;2022-08-03T03:30:49;8.07;;;3.70;;
68583;SDS011;55557;49.220;11.150;2022-08-03T03:33:16;9.37;;;3.83;;
68583;SDS011;55557;49.220;11.150;2022-08-03T03:35:42;9.97;;;4.40;;
68583;SDS011;55557;49.220;11.150;2022-08-03T03:38:10;7.43;;;3.80;;
68583;SDS011;55557;49.220;11.150;2022-08-03T03:40:39;5.33;;;3.87;;
68583;SDS011;55557;49.220;11.150;2022-08-03T03:43:11;5.87;;;3.70;;
68583;SDS011;55557;49.220;11.150;2022-08-03T03:45:39;6.13;;;3.80;;
68583;SDS011;55557;49.220;11.150;2022-08-03T03:48:08;8.40;;;4.33;;
68583;SDS011;55557;49.220;11.150;2022-08-03T03:50:35;4.73;;;3.30;;
68583;SDS011;55557;49.220;11.150;2022-08-03T03:53:07;4.27;;;3.40;;
68583;SDS011;55557;49.220;11.150;2022-08-03T03:55:36;7.43;;;3.73;;
68583;SDS011;55557;49.220;11.150;2022-08-03T03:58:02;7.40;;;4.10;;
68583;SDS011;55557;49.220;11.150;2022-08-03T04:00:29;6.73;;;4.50;;
68583;SDS011;55557;49.220;11.150;2022-08-03T04:03:03;8.70;;;3.43;;
68583;SDS011;55557;49.220;11.150;2022-08-03T04:05:29;9.57;;;4.50;;
68583;SDS011;55557;49.220;11.150;2022-08-03T04:08:17;8.60;;;3.87;;
68583;SDS011;55557;49.220;11.150;2022-08-03T04:14:05;7.13;;;3.67;;
68583;SDS011;55557;49.220;11.150;2022-08-03T04:16:34;8.63;;;3.53;;
68583;SDS011;55557;49.220;11.150;2022-08-03T04:19:03;6.97;;;4.00;;
68583;SDS011;55557;49.220;11.150;2022-08-03T04:21:30;6.00;;;3.63;;
68583;SDS011;55557;49.220;11.150;2022-08-03T04:23:59;5.37;;;3.50;;
68583;SDS011;55557;49.220;11.150;2022-08-03T04:26:27;7.27;;;4.07;;
68583;SDS011;55557;49.220;11.150;2022-08-03T04:28:54;4.60;;;3.83;;
68583;SDS011;55557;49.220;11.150;2022-08-03T04:31:21;7.30;;;4.00;;
68583;SDS011;55557;49.220;11.150;2022-08-03T04:34:07;5.90;;;3.50;;
68583;SDS011;55557;49.220;11.150;2022-08-03T04:36:36;11.67;;;4.07;;
68583;SDS011;55557;49.220;11.150;2022-08-03T04:39:15;7.43;;;4.43;;
68583;SDS011;55557;49.220;11.150;2022-08-03T04:41:57;4.93;;;3.90;;
68583;SDS011;55557;49.220;11.150;2022-08-03T04:44:25;9.70;;;3.60;;
68583;SDS011;55557;49.220;11.150;2022-08-03T04:46:52;4.50;;;3.67;;
68583;SDS011;55557;49.220;11.150;2022-08-03T04:49:21;5.80;;;3.73;;
68583;SDS011;55557;49.220;11.150;2022-08-03T04:51:48;4.77;;;3.57;;
68583;SDS011;55557;49.220;11.150;2022-08-03T04:54:14;4.70;;;3.17;;
68583;SDS011;55557;49.220;11.150;2022-08-03T04:56:41;7.37;;;3.97;;
68583;SDS011;55557;49.220;11.150;2022-08-03T04:59:07;7.17;;;3.73;;
68583;SDS011;55557;49.220;11.150;2022-08-03T05:01:34;4.80;;;3.73;;
68583;SDS011;55557;49.220;11.150;2022-08-03T05:04:00;10.03;;;3.77;;
68583;SDS011;55557;49.220;11.150;2022-08-03T05:06:26;5.30;;;3.60;;
68583;SDS011;55557;49.220;11.150;2022-08-03T05:08:52;8.47;;;3.97;;
68583;SDS011;55557;49.220;11.150;2022-08-03T05:11:19;5.97;;;3.93;;
68583;SDS011;55557;49.220;11.150;2022-08-03T05:13:45;8.03;;;3.60;;
68583;SDS011;55557;49.220;11.150;2022-08-03T05:16:11;7.80;;;3.70;;
68583;SDS011;55557;49.220;11.150;2022-08-03T05:18:38;6.00;;;3.73;;
68583;SDS011;55557;49.220;11.150;2022-08-03T05:21:04;5.57;;;3.47;;
68583;SDS011;55557;49.220;11.150;2022-08-03T05:23:30;5.80;;;3.70;;
68583;SDS011;55557;49.220;11.150;2022-08-03T05:25:56;9.23;;;4.43;;
68583;SDS011;55557;49.220;11.150;2022-08-03T05:28:22;4.10;;;3.63;;
68583;SDS011;55557;49.220;11.150;2022-08-03T05:30:48;4.57;;;3.50;;
68583;SDS011;55557;49.220;11.150;2022-08-03T05:33:14;5.27;;;4.10;;
68583;SDS011;55557;49.220;11.150;2022-08-03T05:35:41;7.03;;;4.07;;
68583;SDS011;55557;49.220;11.150;2022-08-03T05:38:07;5.47;;;3.30;;
68583;SDS011;55557;49.220;11.150;2022-08-03T05:40:33;8.17;;;3.47;;
68583;SDS011;55557;49.220;11.150;2022-08-03T05:42:59;8.70;;;3.37;;
68583;SDS011;55557;49.220;11.150;2022-08-03T05:45:25;5.07;;;3.60;;
68583;SDS011;55557;49.220;11.150;2022-08-03T05:47:51;5.43;;;3.67;;
68583;SDS011;55557;49.220;11.150;2022-08-03T05:50:18;8.20;;;4.10;;
68583;SDS011;55557;49.220;11.150;2022-08-03T05:52:44;6.50;;;3.50;;
68583;SDS011;55557;49.220;11.150;2022-08-03T05:55:10;5.13;;;3.73;;
68583;SDS011;55557;49.220;11.150;2022-08-03T05:57:38;5.27;;;3.57;;
68583;SDS011;55557;49.220;11.150;2022-08-03T06:00:07;6.03;;;3.10;;
68583;SDS011;55557;49.220;11.150;2022-08-03T06:02:34;7.55;;;3.67;;
68583;SDS011;55557;49.220;11.150;2022-08-03T06:05:00;5.47;;;3.60;;
68583;SDS011;55557;49.220;11.150;2022-08-03T06:07:26;5.20;;;3.30;;
68583;SDS011;55557;49.220;11.150;2022-08-03T06:09:52;4.13;;;3.30;;
68583;SDS011;55557;49.220;11.150;2022-08-03T06:12:18;9.23;;;3.90;;
68583;SDS011;55557;49.220;11.150;2022-08-03T06:14:44;3.33;;;3.03;;
68583;SDS011;55557;49.220;11.150;2022-08-03T06:17:10;3.67;;;2.90;;
68583;SDS011;55557;49.220;11.150;2022-08-03T06:19:37;5.00;;;3.10;;
68583;SDS011;55557;49.220;11.150;2022-08-03T06:22:03;5.77;;;3.50;;
68583;SDS011;55557;49.220;11.150;2022-08-03T06:24:29;6.00;;;2.73;;
68583;SDS011;55557;49.220;11.150;2022-08-03T06:26:55;3.80;;;3.10;;
68583;SDS011;55557;49.220;11.150;2022-08-03T06:29:22;4.70;;;3.03;;
68583;SDS011;55557;49.220;11.150;2022-08-03T06:31:47;5.47;;;3.10;;
68583;SDS011;55557;49.220;11.150;2022-08-03T06:34:13;5.17;;;2.60;;
68583;SDS011;55557;49.220;11.150;2022-08-03T06:36:40;4.30;;;2.80;;
68583;SDS011;55557;49.220;11.150;2022-08-03T06:39:06;3.63;;;2.70;;
68583;SDS011;55557;49.220;11.150;2022-08-03T06:41:32;5.63;;;2.63;;
68583;SDS011;55557;49.220;11.150;2022-08-03T06:43:58;5.80;;;2.67;;
68583;SDS011;55557;49.220;11.150;2022-08-03T06:46:24;3.13;;;2.40;;
68583;SDS011;55557;49.220;11.150;2022-08-03T06:48:50;3.73;;;2.53;;
68583;SDS011;55557;49.220;11.150;2022-08-03T06:51:16;2.43;;;2.03;;
68583;SDS011;55557;49.220;11.150;2022-08-03T06:53:42;12.03;;;2.87;;
68583;SDS011;55557;49.220;11.150;2022-08-03T06:56:08;6.10;;;2.70;;
68583;SDS011;55557;49.220;11.150;2022-08-03T06:58:35;6.97;;;2.40;;
68583;SDS011;55557;49.220;11.150;2022-08-03T07:01:01;6.17;;;2.60;;
68583;SDS011;55557;49.220;11.150;2022-08-03T07:03:27;2.67;;;1.90;;
68583;SDS011;55557;49.220;11.150;2022-08-03T07:05:53;9.50;;;2.67;;
68583;SDS011;55557;49.220;11.150;2022-08-03T07:08:19;8.63;;;2.23;;
68583;SDS011;55557;49.220;11.150;2022-08-03T07:10:45;4.70;;;2.10;;
68583;SDS011;55557;49.220;11.150;2022-08-03T07:13:11;4.83;;;2.10;;
68583;SDS011;55557;49.220;11.150;2022-08-03T07:15:38;8.33;;;2.57;;
68583;SDS011;55557;49.220;11.150;2022-08-03T07:18:04;7.57;;;2.20;;
68583;SDS011;55557;49.220;11.150;2022-08-03T07:20:30;6.83;;;2.40;;
68583;SDS011;55557;49.220;11.150;2022-08-03T07:22:57;2.40;;;2.10;;
68583;SDS011;55557;49.220;11.150;2022-08-03T07:25:24;3.30;;;2.23;;
68583;SDS011;55557;49.220;11.150;2022-08-03T07:27:50;3.90;;;2.20;;
68583;SDS011;55557;49.220;11.150;2022-08-03T07:30:16;4.40;;;2.77;;
68583;SDS011;55557;49.220;11.150;2022-08-03T07:32:42;3.37;;;2.10;;
68583;SDS011;55557;49.220;11.150;2022-08-03T07:35:08;3.13;;;2.43;;
68583;SDS011;55557;49.220;11.150;2022-08-03T07:37:35;4.30;;;2.30;;
68583;SDS011;55557;49.220;11.150;2022-08-03T07:40:02;3.13;;;2.20;;
68583;SDS011;55557;49.220;11.150;2022-08-03T07:42:29;2.97;;;2.33;;
68583;SDS011;55557;49.220;11.150;2022-08-03T07:44:55;4.60;;;2.20;;
68583;SDS011;55557;49.220;11.150;2022-08-03T07:47:22;4.13;;;2.50;;
68583;SDS011;55557;49.220;11.150;2022-08-03T07:49:49;2.77;;;1.90;;
68583;SDS011;55557;49.220;11.150;2022-08-03T07:52:15;3.27;;;2.23;;
68583;SDS011;55557;49.220;11.150;2022-08-03T07:55:00;4.17;;;2.00;;
68583;SDS011;55557;49.220;11.150;2022-08-03T07:57:26;3.10;;;2.27;;
68583;SDS011;55557;49.220;11.150;2022-08-03T07:59:52;2.87;;;2.20;;
68583;SDS011;55557;49.220;11.150;2022-08-03T08:02:18;3.63;;;2.00;;
68583;SDS011;55557;49.220;11.150;2022-08-03T08:04:44;2.53;;;2.33;;
68583;SDS011;55557;49.220;11.150;2022-08-03T08:07:10;2.30;;;2.10;;
68583;SDS011;55557;49.220;11.150;2022-08-03T08:09:36;4.60;;;2.47;;
68583;SDS011;55557;49.220;11.150;2022-08-03T08:12:03;5.20;;;2.20;;
68583;SDS011;55557;49.220;11.150;2022-08-03T08:14:29;4.10;;;2.50;;
68583;SDS011;55557;49.220;11.150;2022-08-03T08:16:55;3.43;;;2.17;;
68583;SDS011;55557;49.220;11.150;2022-08-03T08:19:21;5.70;;;2.33;;
68583;SDS011;55557;49.220;11.150;2022-08-03T08:21:47;7.83;;;2.33;;
68583;SDS011;55557;49.220;11.150;2022-08-03T08:24:13;6.07;;;2.30;;
68583;SDS011;55557;49.220;11.150;2022-08-03T08:26:39;5.80;;;2.00;;
68583;SDS011;55557;49.220;11.150;2022-08-03T08:29:05;2.23;;;1.97;;
68583;SDS011;55557;49.220;11.150;2022-08-03T08:31:31;2.83;;;2.20;;
68583;SDS011;55557;49.220;11.150;2022-08-03T08:33:58;4.20;;;1.77;;
68583;SDS011;55557;49.220;11.150;2022-08-03T08:36:29;2.37;;;2.07;;
68583;SDS011;55557;49.220;11.150;2022-08-03T08:38:55;2.10;;;1.90;;
68583;SDS011;55557;49.220;11.150;2022-08-03T08:41:21;6.43;;;1.80;;
68583;SDS011;55557;49.220;11.150;2022-08-03T08:43:47;1.60;;;1.50;;
68583;SDS011;55557;49.220;11.150;2022-08-03T08:46:13;4.20;;;1.87;;
68583;SDS011;55557;49.220;11.150;2022-08-03T08:48:42;2.13;;;1.70;;
68583;SDS011;55557;49.220;11.150;2022-08-03T08:51:09;2.37;;;1.90;;
68583;SDS011;55557;49.220;11.150;2022-08-03T08:53:36;1.57;;;1.47;;
68583;SDS011;55557;49.220;11.150;2022-08-03T08:56:03;5.83;;;1.63;;
68583;SDS011;55557;49.220;11.150;2022-08-03T08:58:36;5.63;;;1.77;;
68583;SDS011;55557;49.220;11.150;2022-08-03T09:01:03;1.53;;;1.23;;
68583;SDS011;55557;49.220;11.150;2022-08-03T09:03:30;7.70;;;1.77;;
68583;SDS011;55557;49.220;11.150;2022-08-03T09:05:58;1.53;;;1.43;;
68583;SDS011;55557;49.220;11.150;2022-08-03T09:08:32;2.00;;;1.43;;
68583;SDS011;55557;49.220;11.150;2022-08-03T09:11:00;1.70;;;1.30;;
68583;SDS011;55557;49.220;11.150;2022-08-03T09:13:26;2.07;;;1.23;;
68583;SDS011;55557;49.220;11.150;2022-08-03T09:16:09;2.23;;;1.47;;
68583;SDS011;55557;49.220;11.150;2022-08-03T09:18:38;3.57;;;1.17;;
68583;SDS011;55557;49.220;11.150;2022-08-03T09:21:11;6.13;;;1.30;;
68583;SDS011;55557;49.220;11.150;2022-08-03T09:23:45;2.77;;;1.30;;
68583;SDS011;55557;49.220;11.150;2022-08-03T09:26:13;1.80;;;1.17;;
68583;SDS011;55557;49.220;11.150;2022-08-03T09:28:59;2.57;;;1.20;;
68583;SDS011;55557;49.220;11.150;2022-08-03T09:34:01;3.33;;;1.10;;
68583;SDS011;55557;49.220;11.150;2022-08-03T09:39:02;2.03;;;1.20;;
68583;SDS011;55557;49.220;11.150;2022-08-03T09:41:37;1.13;;;1.03;;
68583;SDS011;55557;49.220;11.150;2022-08-03T09:44:03;1.53;;;1.00;;
68583;SDS011;55557;49.220;11.150;2022-08-03T09:46:29;2.93;;;1.00;;
68583;SDS011;55557;49.220;11.150;2022-08-03T09:49:09;1.87;;;1.30;;
68583;SDS011;55557;49.220;11.150;2022-08-03T09:51:36;1.23;;;0.83;;
68583;SDS011;55557;49.220;11.150;2022-08-03T09:54:02;0.80;;;0.80;;
68583;SDS011;55557;49.220;11.150;2022-08-03T09:56:44;1.90;;;1.20;;
68583;SDS011;55557;49.220;11.150;2022-08-03T09:59:11;4.13;;;0.93;;
68583;SDS011;55557;49.220;11.150;2022-08-03T10:01:38;1.63;;;0.90;;
68583;SDS011;55557;49.220;11.150;2022-08-03T10:04:10;2.60;;;0.90;;
68583;SDS011;55557;49.220;11.150;2022-08-03T10:06:38;1.30;;;1.03;;
68583;SDS011;55557;49.220;11.150;2022-08-03T10:09:04;1.23;;;1.00;;
68583;SDS011;55557;49.220;11.150;2022-08-03T10:11:34;3.13;;;1.10;;
68583;SDS011;55557;49.220;11.150;2022-08-03T10:14:02;1.20;;;1.10;;
68583;SDS011;55557;49.220;11.150;2022-08-03T10:16:30;1.80;;;1.00;;
68583;SDS011;55557;49.220;11.150;2022-08-03T10:18:58;1.10;;;1.00;;
68583;SDS011;55557;49.220;11.150;2022-08-03T10:21:24;1.73;;;1.20;;
68583;SDS011;55557;49.220;11.150;2022-08-03T10:23:51;1.20;;;0.90;;
68583;SDS011;55557;49.220;11.150;2022-08-03T10:26:18;1.50;;;1.00;;
68583;SDS011;55557;49.220;11.150;2022-08-03T10:28:51;7.93;;;1.33;;
68583;SDS011;55557;49.220;11.150;2022-08-03T10:31:19;5.07;;;1.30;;
68583;SDS011;55557;49.220;11.150;2022-08-03T10:33:48;2.30;;;1.00;;
68583;SDS011;55557;49.220;11.150;2022-08-03T10:36:15;1.10;;;0.90;;
68583;SDS011;55557;49.220;11.150;2022-08-03T10:38:43;1.40;;;0.90;;
68583;SDS011;55557;49.220;11.150;2022-08-03T10:41:12;3.00;;;1.33;;
68583;SDS011;55557;49.220;11.150;2022-08-03T10:43:44;1.97;;;1.27;;
68583;SDS011;55557;49.220;11.150;2022-08-03T10:46:16;4.67;;;1.30;;
68583;SDS011;55557;49.220;11.150;2022-08-03T10:48:51;2.00;;;1.03;;
68583;SDS011;55557;49.220;11.150;2022-08-03T10:51:18;1.83;;;1.23;;
68583;SDS011;55557;49.220;11.150;2022-08-03T10:53:44;2.00;;;1.30;;
68583;SDS011;55557;49.220;11.150;2022-08-03T10:59:18;0.93;;;0.90;;
68583;SDS011;55557;49.220;11.150;2022-08-03T11:01:52;1.30;;;0.97;;
68583;SDS011;55557;49.220;11.150;2022-08-03T11:04:19;1.00;;;0.90;;
68583;SDS011;55557;49.220;11.150;2022-08-03T11:06:45;1.53;;;0.90;;
68583;SDS011;55557;49.220;11.150;2022-08-03T11:09:19;1.30;;;1.20;;
68583;SDS011;55557;49.220;11.150;2022-08-03T11:11:46;2.97;;;1.20;;
68583;SDS011;55557;49.220;11.150;2022-08-03T11:14:21;2.70;;;1.00;;
68583;SDS011;55557;49.220;11.150;2022-08-03T11:16:48;1.73;;;1.10;;
68583;SDS011;55557;49.220;11.150;2022-08-03T11:19:17;1.63;;;0.90;;
68583;SDS011;55557;49.220;11.150;2022-08-03T11:35:11;3.53;;;1.00;;
68583;SDS011;55557;49.220;11.150;2022-08-03T11:42:58;1.23;;;1.13;;
68583;SDS011;55557;49.220;11.150;2022-08-03T11:45:24;0.90;;;0.80;;
68583;SDS011;55557;49.220;11.150;2022-08-03T11:47:54;2.03;;;0.90;;
68583;SDS011;55557;49.220;11.150;2022-08-03T11:50:23;2.50;;;0.90;;
68583;SDS011;55557;49.220;11.150;2022-08-03T11:52:49;1.10;;;0.77;;
68583;SDS011;55557;49.220;11.150;2022-08-03T11:55:18;1.40;;;0.93;;
68583;SDS011;55557;49.220;11.150;2022-08-03T11:57:47;1.23;;;0.90;;
68583;SDS011;55557;49.220;11.150;2022-08-03T12:05:20;1.13;;;1.00;;
68583;SDS011;55557;49.220;11.150;2022-08-03T12:07:58;3.97;;;1.20;;
68583;SDS011;55557;49.220;11.150;2022-08-03T12:10:24;1.38;;;1.00;;
68583;SDS011;55557;49.220;11.150;2022-08-03T12:12:56;1.10;;;1.00;;
68583;SDS011;55557;49.220;11.150;2022-08-03T12:15:30;2.58;;;1.00;;
68583;SDS011;55557;49.220;11.150;2022-08-03T12:17:58;1.55;;;0.85;;
68583;SDS011;55557;49.220;11.150;2022-08-03T12:20:25;2.45;;;0.80;;
68583;SDS011;55557;49.220;11.150;2022-08-03T12:22:52;1.88;;;0.98;;
68583;SDS011;55557;49.220;11.150;2022-08-03T12:25:22;1.42;;;1.08;;
68583;SDS011;55557;49.220;11.150;2022-08-03T12:28:08;1.10;;;0.85;;
68583;SDS011;55557;49.220;11.150;2022-08-03T12:30:35;2.60;;;1.00;;
68583;SDS011;55557;49.220;11.150;2022-08-03T12:33:22;2.72;;;1.67;;
68583;SDS011;55557;49.220;11.150;2022-08-03T12:38:28;1.92;;;1.00;;
68583;SDS011;55557;49.220;11.150;2022-08-03T12:41:10;8.50;;;1.05;;
68583;SDS011;55557;49.220;11.150;2022-08-03T12:43:46;1.20;;;1.10;;
68583;SDS011;55557;49.220;11.150;2022-08-03T12:46:14;1.30;;;0.90;;
68583;SDS011;55557;49.220;11.150;2022-08-03T12:49:00;0.80;;;0.80;;
68583;SDS011;55557;49.220;11.150;2022-08-03T12:51:30;1.05;;;0.90;;
68583;SDS011;55557;49.220;11.150;2022-08-03T12:53:56;1.40;;;0.85;;
68583;SDS011;55557;49.220;11.150;2022-08-03T12:56:23;1.08;;;0.98;;
68583;SDS011;55557;49.220;11.150;2022-08-03T12:58:49;0.90;;;0.90;;
68583;SDS011;55557;49.220;11.150;2022-08-03T13:01:17;0.80;;;0.80;;
68583;SDS011;55557;49.220;11.150;2022-08-03T13:03:45;3.08;;;1.20;;
68583;SDS011;55557;49.220;11.150;2022-08-03T13:06:12;1.63;;;1.10;;
68583;SDS011;55557;49.220;11.150;2022-08-03T13:08:38;2.40;;;0.90;;
68583;SDS011;55557;49.220;11.150;2022-08-03T13:11:24;2.20;;;1.10;;
68583;SDS011;55557;49.220;11.150;2022-08-03T13:13:50;3.85;;;0.90;;
68583;SDS011;55557;49.220;11.150;2022-08-03T13:16:17;4.23;;;1.37;;
68583;SDS011;55557;49.220;11.150;2022-08-03T13:18:44;0.80;;;0.80;;
68583;SDS011;55557;49.220;11.150;2022-08-03T13:21:13;2.10;;;1.02;;
68583;SDS011;55557;49.220;11.150;2022-08-03T13:26:46;1.37;;;1.00;;
68583;SDS011;55557;49.220;11.150;2022-08-03T13:29:12;1.83;;;0.90;;
68583;SDS011;55557;49.220;11.150;2022-08-03T13:31:38;0.80;;;0.80;;
68583;SDS011;55557;49.220;11.150;2022-08-03T13:34:04;3.33;;;1.00;;
68583;SDS011;55557;49.220;11.150;2022-08-03T13:36:33;2.47;;;0.83;;
68583;SDS011;55557;49.220;11.150;2022-08-03T13:38:59;0.83;;;0.80;;
68583;SDS011;55557;49.220;11.150;2022-08-03T13:41:25;1.47;;;1.03;;
68583;SDS011;55557;49.220;11.150;2022-08-03T13:43:51;3.83;;;0.70;;
68583;SDS011;55557;49.220;11.150;2022-08-03T13:46:17;1.20;;;0.90;;
68583;SDS011;55557;49.220;11.150;2022-08-03T13:48:44;1.08;;;0.90;;
68583;SDS011;55557;49.220;11.150;2022-08-03T13:51:10;1.10;;;0.82;;
68583;SDS011;55557;49.220;11.150;2022-08-03T13:53:37;0.75;;;0.73;;
68583;SDS011;55557;49.220;11.150;2022-08-03T13:56:03;2.97;;;1.20;;
68583;SDS011;55557;49.220;11.150;2022-08-03T13:58:29;1.70;;;1.02;;
68583;SDS011;55557;49.220;11.150;2022-08-03T14:00:55;1.33;;;1.08;;
68583;SDS011;55557;49.220;11.150;2022-08-03T14:03:21;2.97;;;0.85;;
68583;SDS011;55557;49.220;11.150;2022-08-03T14:05:47;1.00;;;0.85;;
68583;SDS011;55557;49.220;11.150;2022-08-03T14:08:13;1.27;;;0.88;;
68583;SDS011;55557;49.220;11.150;2022-08-03T14:10:41;1.65;;;1.00;;
68583;SDS011;55557;49.220;11.150;2022-08-03T14:13:07;1.05;;;0.70;;
68583;SDS011;55557;49.220;11.150;2022-08-03T14:15:33;1.00;;;0.82;;
68583;SDS011;55557;49.220;11.150;2022-08-03T14:18:00;1.13;;;0.70;;
68583;SDS011;55557;49.220;11.150;2022-08-03T14:20:26;0.98;;;0.88;;
68583;SDS011;55557;49.220;11.150;2022-08-03T14:22:53;2.38;;;1.05;;
68583;SDS011;55557;49.220;11.150;2022-08-03T14:25:23;1.00;;;0.90;;
68583;SDS011;55557;49.220;11.150;2022-08-03T14:27:49;3.60;;;0.50;;
68583;SDS011;55557;49.220;11.150;2022-08-03T14:30:15;0.98;;;0.88;;
68583;SDS011;55557;49.220;11.150;2022-08-03T14:32:41;1.88;;;1.13;;
68583;SDS011;55557;49.220;11.150;2022-08-03T14:35:07;3.08;;;1.08;;
68583;SDS011;55557;49.220;11.150;2022-08-03T14:37:34;4.32;;;1.20;;
68583;SDS011;55557;49.220;11.150;2022-08-03T14:40:00;4.32;;;0.80;;
68583;SDS011;55557;49.220;11.150;2022-08-03T14:42:26;1.55;;;1.10;;
68583;SDS011;55557;49.220;11.150;2022-08-03T14:44:52;1.08;;;0.82;;
68583;SDS011;55557;49.220;11.150;2022-08-03T14:47:18;2.17;;;1.05;;
68583;SDS011;55557;49.220;11.150;2022-08-03T14:49:44;2.15;;;0.90;;
68583;SDS011;55557;49.220;11.150;2022-08-03T14:52:10;0.80;;;0.80;;
68583;SDS011;55557;49.220;11.150;2022-08-03T14:54:36;1.30;;;1.05;;
68583;SDS011;55557;49.220;11.150;2022-08-03T14:57:03;0.90;;;0.82;;
68583;SDS011;55557;49.220;11.150;2022-08-03T14:59:29;1.35;;;0.90;;
68583;SDS011;55557;49.220;11.150;2022-08-03T15:01:55;0.85;;;0.80;;
68583;SDS011;55557;49.220;11.150;2022-08-03T15:04:21;2.78;;;0.70;;
68583;SDS011;55557;49.220;11.150;2022-08-03T15:06:47;2.17;;;1.10;;
68583;SDS011;55557;49.220;11.150;2022-08-03T15:09:13;0.60;;;0.60;;
68583;SDS011;55557;49.220;11.150;2022-08-03T15:11:39;1.88;;;0.80;;
68583;SDS011;55557;49.220;11.150;2022-08-03T15:14:05;2.05;;;0.93;;
68583;SDS011;55557;49.220;11.150;2022-08-03T15:16:31;0.82;;;0.80;;
68583;SDS011;55557;49.220;11.150;2022-08-03T15:18:57;1.17;;;1.08;;
68583;SDS011;55557;49.220;11.150;2022-08-03T15:21:24;1.30;;;1.00;;
68583;SDS011;55557;49.220;11.150;2022-08-03T15:23:50;1.20;;;1.00;;
68583;SDS011;55557;49.220;11.150;2022-08-03T15:26:18;1.08;;;1.02;;
68583;SDS011;55557;49.220;11.150;2022-08-03T15:28:44;3.63;;;1.15;;
68583;SDS011;55557;49.220;11.150;2022-08-03T15:31:10;8.82;;;1.00;;
68583;SDS011;55557;49.220;11.150;2022-08-03T15:33:36;1.20;;;1.00;;